Portada
METAR-TAF:

METAR-TAF

Aeroports :

Ko Samui, Tailàndia

latitud: 09-32-52N, longitud: 100-03-44E, altitud: 20 m

Observació

L'informe es va fer fa 18 minuts, a les 13:30 UTC
Vent 10 kt del Sud/Sud-Est
Temperatura 28°C
Humitat 79%
Pressió 1012 hPa
Visibilitat 10 km o més
Escasses núvols a una alçada de 2000 ft

METAR: VTSM 261330Z 15010KT 9999 FEW020 28/24 Q1012 NOSIG

Hora: 20:48 (13:48 UTC)

Pronòstic

L'informe es va fer fa 2 hores i 48 minuts, a les 11:00 UTC
Pronòstic vàlid del 26 a les 12 UTC al 27 a les 12 UTC
Vent 8 kt del Sud-Est
Visibilitat 10 km o més
Escasses núvols a una alçada de 2000 ft

TAF: VTSM 261100Z 2612/2712 14008KT 9999 FEW020

Observacions i pronòstics meteorològics de més de 4000 aeroports (METAR i TAF).

Les estacions disponibles són els punts grocs i vermells al mapa.

Posi el ratolí al punt desitjat per veure el nom de l'estació.

Feu clic per veure les observacions i els pronòstics meteorològics.

Per canviar el mapa: feu clic els botons verds amb una creu de color negre per apropar; al botó verd amb un guió per allunyar la imatge; o en les fletxes verdes per a mapes adjacents.


METAR-TAF: